sensor_id;sensor_type;location;lat;lon;timestamp;P1;durP1;ratioP1;P2;durP2;ratioP2
35026;SDS011;60696;51.426;6.934;2022-07-17T00:01:32;4.57;;;1.10;;
35026;SDS011;60696;51.426;6.934;2022-07-17T00:03:58;6.80;;;2.15;;
35026;SDS011;60696;51.426;6.934;2022-07-17T00:06:24;7.80;;;1.80;;
35026;SDS011;60696;51.426;6.934;2022-07-17T00:08:49;4.90;;;1.65;;
35026;SDS011;60696;51.426;6.934;2022-07-17T00:11:15;5.40;;;1.95;;
35026;SDS011;60696;51.426;6.934;2022-07-17T00:13:41;4.90;;;1.42;;
35026;SDS011;60696;51.426;6.934;2022-07-17T00:16:06;3.38;;;1.30;;
35026;SDS011;60696;51.426;6.934;2022-07-17T00:18:32;6.43;;;1.77;;
35026;SDS011;60696;51.426;6.934;2022-07-17T00:20:58;4.53;;;1.70;;
35026;SDS011;60696;51.426;6.934;2022-07-17T00:23:24;5.68;;;2.22;;
35026;SDS011;60696;51.426;6.934;2022-07-17T00:25:49;6.03;;;2.28;;
35026;SDS011;60696;51.426;6.934;2022-07-17T00:28:15;8.75;;;2.08;;
35026;SDS011;60696;51.426;6.934;2022-07-17T00:30:41;3.35;;;1.50;;
35026;SDS011;60696;51.426;6.934;2022-07-17T00:33:06;6.53;;;1.83;;
35026;SDS011;60696;51.426;6.934;2022-07-17T00:35:32;8.07;;;2.28;;
35026;SDS011;60696;51.426;6.934;2022-07-17T00:37:58;5.32;;;2.03;;
35026;SDS011;60696;51.426;6.934;2022-07-17T00:40:24;6.70;;;2.03;;
35026;SDS011;60696;51.426;6.934;2022-07-17T00:42:50;5.10;;;2.05;;
35026;SDS011;60696;51.426;6.934;2022-07-17T00:45:16;7.85;;;1.90;;
35026;SDS011;60696;51.426;6.934;2022-07-17T00:52:39;7.90;;;2.20;;
35026;SDS011;60696;51.426;6.934;2022-07-17T00:55:05;5.88;;;1.88;;
35026;SDS011;60696;51.426;6.934;2022-07-17T00:57:32;8.15;;;2.45;;
35026;SDS011;60696;51.426;6.934;2022-07-17T00:59:58;4.97;;;1.92;;
35026;SDS011;60696;51.426;6.934;2022-07-17T01:02:24;6.80;;;2.05;;
35026;SDS011;60696;51.426;6.934;2022-07-17T01:04:50;8.50;;;2.10;;
35026;SDS011;60696;51.426;6.934;2022-07-17T01:07:15;6.18;;;2.10;;
35026;SDS011;60696;51.426;6.934;2022-07-17T01:09:41;6.13;;;2.00;;
35026;SDS011;60696;51.426;6.934;2022-07-17T01:12:07;6.57;;;2.13;;
35026;SDS011;60696;51.426;6.934;2022-07-17T01:14:34;8.93;;;2.00;;
35026;SDS011;60696;51.426;6.934;2022-07-17T01:17:00;10.52;;;2.33;;
35026;SDS011;60696;51.426;6.934;2022-07-17T01:19:26;7.97;;;1.80;;
35026;SDS011;60696;51.426;6.934;2022-07-17T01:21:52;6.45;;;1.80;;
35026;SDS011;60696;51.426;6.934;2022-07-17T01:24:17;7.65;;;2.28;;
35026;SDS011;60696;51.426;6.934;2022-07-17T01:26:46;5.88;;;1.80;;
35026;SDS011;60696;51.426;6.934;2022-07-17T01:29:13;8.95;;;2.25;;
35026;SDS011;60696;51.426;6.934;2022-07-17T01:31:40;9.18;;;1.95;;
35026;SDS011;60696;51.426;6.934;2022-07-17T01:34:06;11.63;;;2.65;;
35026;SDS011;60696;51.426;6.934;2022-07-17T01:36:33;6.47;;;1.88;;
35026;SDS011;60696;51.426;6.934;2022-07-17T01:38:59;6.75;;;1.95;;
35026;SDS011;60696;51.426;6.934;2022-07-17T01:41:26;7.63;;;1.90;;
35026;SDS011;60696;51.426;6.934;2022-07-17T01:43:51;6.65;;;1.40;;
35026;SDS011;60696;51.426;6.934;2022-07-17T01:46:17;5.60;;;1.50;;
35026;SDS011;60696;51.426;6.934;2022-07-17T01:48:43;7.72;;;1.45;;
35026;SDS011;60696;51.426;6.934;2022-07-17T01:51:08;8.38;;;1.17;;
35026;SDS011;60696;51.426;6.934;2022-07-17T01:53:34;5.30;;;1.45;;
35026;SDS011;60696;51.426;6.934;2022-07-17T01:56:00;7.38;;;1.50;;
35026;SDS011;60696;51.426;6.934;2022-07-17T01:58:25;10.07;;;1.70;;
35026;SDS011;60696;51.426;6.934;2022-07-17T02:00:51;3.42;;;1.13;;
35026;SDS011;60696;51.426;6.934;2022-07-17T02:03:17;5.07;;;1.42;;
35026;SDS011;60696;51.426;6.934;2022-07-17T02:05:44;6.55;;;1.67;;
35026;SDS011;60696;51.426;6.934;2022-07-17T02:08:09;9.07;;;2.03;;
35026;SDS011;60696;51.426;6.934;2022-07-17T02:10:35;5.72;;;1.67;;
35026;SDS011;60696;51.426;6.934;2022-07-17T02:13:01;5.65;;;2.25;;
35026;SDS011;60696;51.426;6.934;2022-07-17T02:15:27;11.95;;;1.60;;
35026;SDS011;60696;51.426;6.934;2022-07-17T02:17:53;4.43;;;1.48;;
35026;SDS011;60696;51.426;6.934;2022-07-17T02:20:18;6.20;;;1.38;;
35026;SDS011;60696;51.426;6.934;2022-07-17T02:22:44;7.82;;;1.58;;
35026;SDS011;60696;51.426;6.934;2022-07-17T02:25:10;6.82;;;1.33;;
35026;SDS011;60696;51.426;6.934;2022-07-17T02:27:37;9.23;;;1.80;;
35026;SDS011;60696;51.426;6.934;2022-07-17T02:30:04;8.32;;;1.63;;
35026;SDS011;60696;51.426;6.934;2022-07-17T02:32:33;10.35;;;1.40;;
35026;SDS011;60696;51.426;6.934;2022-07-17T02:34:58;12.85;;;1.92;;
35026;SDS011;60696;51.426;6.934;2022-07-17T02:37:24;4.70;;;1.50;;
35026;SDS011;60696;51.426;6.934;2022-07-17T02:39:49;10.95;;;1.88;;
35026;SDS011;60696;51.426;6.934;2022-07-17T02:42:22;7.80;;;1.85;;
35026;SDS011;60696;51.426;6.934;2022-07-17T02:44:49;7.57;;;1.80;;
35026;SDS011;60696;51.426;6.934;2022-07-17T02:47:26;9.10;;;1.83;;
35026;SDS011;60696;51.426;6.934;2022-07-17T02:49:54;9.13;;;1.92;;
35026;SDS011;60696;51.426;6.934;2022-07-17T02:52:20;4.40;;;1.60;;
35026;SDS011;60696;51.426;6.934;2022-07-17T02:54:46;6.88;;;1.70;;
35026;SDS011;60696;51.426;6.934;2022-07-17T02:57:12;6.60;;;1.75;;
35026;SDS011;60696;51.426;6.934;2022-07-17T02:59:37;11.50;;;1.88;;
35026;SDS011;60696;51.426;6.934;2022-07-17T03:02:03;9.80;;;1.75;;
35026;SDS011;60696;51.426;6.934;2022-07-17T03:04:29;6.03;;;1.60;;
35026;SDS011;60696;51.426;6.934;2022-07-17T03:06:55;6.72;;;1.48;;
35026;SDS011;60696;51.426;6.934;2022-07-17T03:09:21;12.73;;;1.75;;
35026;SDS011;60696;51.426;6.934;2022-07-17T03:11:46;6.85;;;1.92;;
35026;SDS011;60696;51.426;6.934;2022-07-17T03:14:12;10.35;;;1.83;;
35026;SDS011;60696;51.426;6.934;2022-07-17T03:16:38;5.15;;;1.83;;
35026;SDS011;60696;51.426;6.934;2022-07-17T03:19:03;7.57;;;1.85;;
35026;SDS011;60696;51.426;6.934;2022-07-17T03:21:29;6.35;;;1.70;;
35026;SDS011;60696;51.426;6.934;2022-07-17T03:23:55;9.65;;;2.03;;
35026;SDS011;60696;51.426;6.934;2022-07-17T03:26:20;7.28;;;2.13;;
35026;SDS011;60696;51.426;6.934;2022-07-17T03:28:46;6.78;;;1.73;;
35026;SDS011;60696;51.426;6.934;2022-07-17T03:31:11;7.38;;;1.63;;
35026;SDS011;60696;51.426;6.934;2022-07-17T03:33:37;7.85;;;2.10;;
35026;SDS011;60696;51.426;6.934;2022-07-17T03:36:03;6.15;;;1.77;;
35026;SDS011;60696;51.426;6.934;2022-07-17T03:38:28;8.95;;;2.17;;
35026;SDS011;60696;51.426;6.934;2022-07-17T03:40:54;6.93;;;1.60;;
35026;SDS011;60696;51.426;6.934;2022-07-17T03:43:19;8.00;;;2.03;;
35026;SDS011;60696;51.426;6.934;2022-07-17T03:45:45;10.98;;;2.08;;
35026;SDS011;60696;51.426;6.934;2022-07-17T03:48:11;8.90;;;2.28;;
35026;SDS011;60696;51.426;6.934;2022-07-17T03:50:36;8.02;;;2.17;;
35026;SDS011;60696;51.426;6.934;2022-07-17T03:53:02;9.65;;;2.40;;
35026;SDS011;60696;51.426;6.934;2022-07-17T03:55:28;8.10;;;2.20;;
35026;SDS011;60696;51.426;6.934;2022-07-17T03:57:53;8.40;;;2.10;;
35026;SDS011;60696;51.426;6.934;2022-07-17T04:00:19;6.22;;;2.15;;
35026;SDS011;60696;51.426;6.934;2022-07-17T04:02:44;5.97;;;2.38;;
35026;SDS011;60696;51.426;6.934;2022-07-17T04:05:10;15.02;;;2.35;;
35026;SDS011;60696;51.426;6.934;2022-07-17T04:07:37;7.32;;;2.20;;
35026;SDS011;60696;51.426;6.934;2022-07-17T04:10:04;8.57;;;2.40;;
35026;SDS011;60696;51.426;6.934;2022-07-17T04:12:30;8.88;;;2.65;;
35026;SDS011;60696;51.426;6.934;2022-07-17T04:14:56;7.60;;;2.05;;
35026;SDS011;60696;51.426;6.934;2022-07-17T04:17:22;8.45;;;2.53;;
35026;SDS011;60696;51.426;6.934;2022-07-17T04:19:48;5.88;;;2.03;;
35026;SDS011;60696;51.426;6.934;2022-07-17T04:22:14;5.75;;;2.08;;
35026;SDS011;60696;51.426;6.934;2022-07-17T04:24:40;6.95;;;2.20;;
35026;SDS011;60696;51.426;6.934;2022-07-17T04:27:06;6.00;;;1.90;;
35026;SDS011;60696;51.426;6.934;2022-07-17T04:29:31;9.07;;;2.15;;
35026;SDS011;60696;51.426;6.934;2022-07-17T04:31:57;6.10;;;2.08;;
35026;SDS011;60696;51.426;6.934;2022-07-17T04:34:23;6.88;;;2.25;;
35026;SDS011;60696;51.426;6.934;2022-07-17T04:36:49;8.63;;;1.90;;
35026;SDS011;60696;51.426;6.934;2022-07-17T04:39:15;7.68;;;2.65;;
35026;SDS011;60696;51.426;6.934;2022-07-17T04:41:41;6.78;;;2.65;;
35026;SDS011;60696;51.426;6.934;2022-07-17T04:44:07;8.98;;;2.22;;
35026;SDS011;60696;51.426;6.934;2022-07-17T04:46:32;7.05;;;2.25;;
35026;SDS011;60696;51.426;6.934;2022-07-17T04:48:58;6.57;;;1.77;;
35026;SDS011;60696;51.426;6.934;2022-07-17T04:51:23;7.70;;;2.30;;
35026;SDS011;60696;51.426;6.934;2022-07-17T04:53:49;6.18;;;1.80;;
35026;SDS011;60696;51.426;6.934;2022-07-17T04:56:15;7.85;;;2.03;;
35026;SDS011;60696;51.426;6.934;2022-07-17T04:58:40;8.00;;;2.88;;
35026;SDS011;60696;51.426;6.934;2022-07-17T05:01:06;6.03;;;1.75;;
35026;SDS011;60696;51.426;6.934;2022-07-17T05:03:32;6.28;;;1.63;;
35026;SDS011;60696;51.426;6.934;2022-07-17T05:05:57;7.88;;;2.50;;
35026;SDS011;60696;51.426;6.934;2022-07-17T05:08:23;5.82;;;1.67;;
35026;SDS011;60696;51.426;6.934;2022-07-17T05:10:48;7.40;;;2.00;;
35026;SDS011;60696;51.426;6.934;2022-07-17T05:13:14;9.13;;;1.58;;
35026;SDS011;60696;51.426;6.934;2022-07-17T05:15:40;5.07;;;1.80;;
35026;SDS011;60696;51.426;6.934;2022-07-17T05:18:05;6.20;;;1.95;;
35026;SDS011;60696;51.426;6.934;2022-07-17T05:20:31;3.85;;;1.77;;
35026;SDS011;60696;51.426;6.934;2022-07-17T05:22:57;7.03;;;1.65;;
35026;SDS011;60696;51.426;6.934;2022-07-17T05:25:22;3.83;;;1.48;;
35026;SDS011;60696;51.426;6.934;2022-07-17T05:27:48;6.18;;;1.45;;
35026;SDS011;60696;51.426;6.934;2022-07-17T05:30:14;4.97;;;1.70;;
35026;SDS011;60696;51.426;6.934;2022-07-17T05:32:39;5.07;;;1.67;;
35026;SDS011;60696;51.426;6.934;2022-07-17T05:35:05;6.78;;;1.52;;
35026;SDS011;60696;51.426;6.934;2022-07-17T05:37:31;6.05;;;1.80;;
35026;SDS011;60696;51.426;6.934;2022-07-17T05:39:57;7.05;;;2.00;;
35026;SDS011;60696;51.426;6.934;2022-07-17T05:42:22;5.53;;;1.73;;
35026;SDS011;60696;51.426;6.934;2022-07-17T05:44:48;4.28;;;1.63;;
35026;SDS011;60696;51.426;6.934;2022-07-17T05:47:13;7.10;;;1.83;;
35026;SDS011;60696;51.426;6.934;2022-07-17T05:49:39;6.53;;;1.45;;
35026;SDS011;60696;51.426;6.934;2022-07-17T05:52:05;3.95;;;1.75;;
35026;SDS011;60696;51.426;6.934;2022-07-17T05:54:31;7.32;;;1.90;;
35026;SDS011;60696;51.426;6.934;2022-07-17T05:57:00;4.47;;;1.60;;
35026;SDS011;60696;51.426;6.934;2022-07-17T05:59:26;6.40;;;1.83;;
35026;SDS011;60696;51.426;6.934;2022-07-17T06:01:51;3.13;;;1.30;;
35026;SDS011;60696;51.426;6.934;2022-07-17T06:04:17;5.93;;;1.35;;
35026;SDS011;60696;51.426;6.934;2022-07-17T06:06:43;6.03;;;1.58;;
35026;SDS011;60696;51.426;6.934;2022-07-17T06:09:08;9.18;;;1.92;;
35026;SDS011;60696;51.426;6.934;2022-07-17T06:11:34;4.60;;;1.42;;
35026;SDS011;60696;51.426;6.934;2022-07-17T06:14:00;6.20;;;1.80;;
35026;SDS011;60696;51.426;6.934;2022-07-17T06:16:26;4.78;;;1.73;;
35026;SDS011;60696;51.426;6.934;2022-07-17T06:18:51;6.07;;;1.92;;
35026;SDS011;60696;51.426;6.934;2022-07-17T06:21:17;5.03;;;1.42;;
35026;SDS011;60696;51.426;6.934;2022-07-17T06:23:43;6.43;;;1.70;;
35026;SDS011;60696;51.426;6.934;2022-07-17T06:26:08;5.03;;;1.50;;
35026;SDS011;60696;51.426;6.934;2022-07-17T06:28:34;5.35;;;1.63;;
35026;SDS011;60696;51.426;6.934;2022-07-17T06:31:00;4.15;;;1.60;;
35026;SDS011;60696;51.426;6.934;2022-07-17T06:33:25;7.00;;;1.83;;
35026;SDS011;60696;51.426;6.934;2022-07-17T06:35:51;4.32;;;1.70;;
35026;SDS011;60696;51.426;6.934;2022-07-17T06:38:17;5.53;;;1.42;;
35026;SDS011;60696;51.426;6.934;2022-07-17T06:40:43;2.95;;;1.50;;
35026;SDS011;60696;51.426;6.934;2022-07-17T06:43:09;7.47;;;1.55;;
35026;SDS011;60696;51.426;6.934;2022-07-17T06:45:35;8.18;;;1.35;;
35026;SDS011;60696;51.426;6.934;2022-07-17T06:48:01;3.20;;;1.30;;
35026;SDS011;60696;51.426;6.934;2022-07-17T06:50:26;10.55;;;1.77;;
35026;SDS011;60696;51.426;6.934;2022-07-17T06:52:52;3.78;;;1.25;;
35026;SDS011;60696;51.426;6.934;2022-07-17T06:55:18;7.40;;;1.42;;
35026;SDS011;60696;51.426;6.934;2022-07-17T06:57:44;8.27;;;1.55;;
35026;SDS011;60696;51.426;6.934;2022-07-17T07:00:09;3.70;;;1.38;;
35026;SDS011;60696;51.426;6.934;2022-07-17T07:02:36;3.85;;;1.15;;
35026;SDS011;60696;51.426;6.934;2022-07-17T07:05:02;4.43;;;1.35;;
35026;SDS011;60696;51.426;6.934;2022-07-17T07:07:29;6.60;;;1.38;;
35026;SDS011;60696;51.426;6.934;2022-07-17T07:09:55;6.03;;;1.40;;
35026;SDS011;60696;51.426;6.934;2022-07-17T07:12:20;4.35;;;0.95;;
35026;SDS011;60696;51.426;6.934;2022-07-17T07:14:46;3.35;;;1.05;;
35026;SDS011;60696;51.426;6.934;2022-07-17T07:17:12;4.70;;;1.40;;
35026;SDS011;60696;51.426;6.934;2022-07-17T07:19:37;6.18;;;1.23;;
35026;SDS011;60696;51.426;6.934;2022-07-17T07:22:03;4.40;;;1.17;;
35026;SDS011;60696;51.426;6.934;2022-07-17T07:24:29;5.45;;;1.38;;
35026;SDS011;60696;51.426;6.934;2022-07-17T07:26:54;5.75;;;1.45;;
35026;SDS011;60696;51.426;6.934;2022-07-17T07:29:20;7.72;;;1.25;;
35026;SDS011;60696;51.426;6.934;2022-07-17T07:31:46;5.80;;;1.40;;
35026;SDS011;60696;51.426;6.934;2022-07-17T07:34:12;8.48;;;1.33;;
35026;SDS011;60696;51.426;6.934;2022-07-17T07:36:38;5.35;;;1.38;;
35026;SDS011;60696;51.426;6.934;2022-07-17T07:39:04;3.92;;;1.50;;
35026;SDS011;60696;51.426;6.934;2022-07-17T07:41:30;4.95;;;1.33;;
35026;SDS011;60696;51.426;6.934;2022-07-17T07:43:55;3.45;;;1.20;;
35026;SDS011;60696;51.426;6.934;2022-07-17T07:46:21;4.65;;;1.08;;
35026;SDS011;60696;51.426;6.934;2022-07-17T07:48:46;6.68;;;1.23;;
35026;SDS011;60696;51.426;6.934;2022-07-17T07:51:12;6.43;;;1.48;;
35026;SDS011;60696;51.426;6.934;2022-07-17T07:53:38;5.25;;;1.27;;
35026;SDS011;60696;51.426;6.934;2022-07-17T07:56:04;9.45;;;1.42;;
35026;SDS011;60696;51.426;6.934;2022-07-17T07:58:29;8.52;;;1.30;;
35026;SDS011;60696;51.426;6.934;2022-07-17T08:00:55;3.20;;;1.20;;
35026;SDS011;60696;51.426;6.934;2022-07-17T08:03:20;3.75;;;1.00;;
35026;SDS011;60696;51.426;6.934;2022-07-17T08:05:46;4.15;;;1.30;;
35026;SDS011;60696;51.426;6.934;2022-07-17T08:08:12;2.97;;;0.90;;
35026;SDS011;60696;51.426;6.934;2022-07-17T08:10:37;3.33;;;0.90;;
35026;SDS011;60696;51.426;6.934;2022-07-17T08:13:03;3.75;;;1.08;;
35026;SDS011;60696;51.426;6.934;2022-07-17T08:15:29;5.53;;;1.40;;
35026;SDS011;60696;51.426;6.934;2022-07-17T08:17:55;4.85;;;1.23;;
35026;SDS011;60696;51.426;6.934;2022-07-17T08:20:20;3.33;;;0.93;;
35026;SDS011;60696;51.426;6.934;2022-07-17T08:22:47;7.25;;;1.10;;
35026;SDS011;60696;51.426;6.934;2022-07-17T08:25:14;5.00;;;1.10;;
35026;SDS011;60696;51.426;6.934;2022-07-17T08:27:41;7.00;;;1.15;;
35026;SDS011;60696;51.426;6.934;2022-07-17T08:30:09;5.45;;;1.00;;
35026;SDS011;60696;51.426;6.934;2022-07-17T08:32:36;7.43;;;1.50;;
35026;SDS011;60696;51.426;6.934;2022-07-17T08:35:03;6.68;;;1.33;;
35026;SDS011;60696;51.426;6.934;2022-07-17T08:37:29;4.20;;;1.30;;
35026;SDS011;60696;51.426;6.934;2022-07-17T08:39:55;2.83;;;1.10;;
35026;SDS011;60696;51.426;6.934;2022-07-17T08:42:21;3.83;;;1.17;;
35026;SDS011;60696;51.426;6.934;2022-07-17T08:44:47;8.52;;;1.88;;
35026;SDS011;60696;51.426;6.934;2022-07-17T08:47:14;8.10;;;1.50;;
35026;SDS011;60696;51.426;6.934;2022-07-17T08:49:44;6.93;;;1.20;;
35026;SDS011;60696;51.426;6.934;2022-07-17T08:52:11;4.78;;;1.30;;
35026;SDS011;60696;51.426;6.934;2022-07-17T08:54:37;4.10;;;1.15;;
35026;SDS011;60696;51.426;6.934;2022-07-17T08:57:03;6.43;;;1.52;;
35026;SDS011;60696;51.426;6.934;2022-07-17T08:59:29;4.93;;;1.40;;
35026;SDS011;60696;51.426;6.934;2022-07-17T09:01:55;4.50;;;1.38;;
35026;SDS011;60696;51.426;6.934;2022-07-17T09:04:21;3.80;;;1.27;;
35026;SDS011;60696;51.426;6.934;2022-07-17T09:06:56;2.97;;;0.90;;
35026;SDS011;60696;51.426;6.934;2022-07-17T09:09:26;7.03;;;1.48;;
35026;SDS011;60696;51.426;6.934;2022-07-17T09:11:53;4.03;;;1.00;;
35026;SDS011;60696;51.426;6.934;2022-07-17T09:14:20;7.22;;;1.48;;
35026;SDS011;60696;51.426;6.934;2022-07-17T09:16:47;5.55;;;1.42;;
35026;SDS011;60696;51.426;6.934;2022-07-17T09:19:25;6.05;;;1.55;;
35026;SDS011;60696;51.426;6.934;2022-07-17T09:22:12;7.43;;;1.60;;
35026;SDS011;60696;51.426;6.934;2022-07-17T09:29:53;3.35;;;1.05;;
35026;SDS011;60696;51.426;6.934;2022-07-17T09:32:23;4.75;;;1.13;;
35026;SDS011;60696;51.426;6.934;2022-07-17T09:34:51;4.18;;;1.20;;
35026;SDS011;60696;51.426;6.934;2022-07-17T09:37:18;3.38;;;1.30;;
35026;SDS011;60696;51.426;6.934;2022-07-17T09:39:43;3.05;;;0.80;;
35026;SDS011;60696;51.426;6.934;2022-07-17T09:42:09;7.60;;;1.42;;
35026;SDS011;60696;51.426;6.934;2022-07-17T09:47:27;4.47;;;1.30;;
35026;SDS011;60696;51.426;6.934;2022-07-17T09:49:54;6.75;;;1.52;;
35026;SDS011;60696;51.426;6.934;2022-07-17T09:52:25;7.03;;;1.45;;
35026;SDS011;60696;51.426;6.934;2022-07-17T09:54:54;7.20;;;1.27;;
35026;SDS011;60696;51.426;6.934;2022-07-17T09:57:25;9.88;;;1.17;;
35026;SDS011;60696;51.426;6.934;2022-07-17T09:59:53;5.78;;;1.50;;
35026;SDS011;60696;51.426;6.934;2022-07-17T10:02:20;4.65;;;1.25;;
35026;SDS011;60696;51.426;6.934;2022-07-17T10:04:46;6.93;;;1.38;;
35026;SDS011;60696;51.426;6.934;2022-07-17T10:07:12;5.57;;;1.63;;
35026;SDS011;60696;51.426;6.934;2022-07-17T10:09:39;4.25;;;1.27;;
35026;SDS011;60696;51.426;6.934;2022-07-17T10:12:05;6.68;;;1.52;;
35026;SDS011;60696;51.426;6.934;2022-07-17T10:14:32;4.65;;;1.73;;
35026;SDS011;60696;51.426;6.934;2022-07-17T10:17:06;3.97;;;1.52;;
35026;SDS011;60696;51.426;6.934;2022-07-17T10:22:42;5.82;;;1.60;;
35026;SDS011;60696;51.426;6.934;2022-07-17T10:25:12;5.97;;;1.50;;
35026;SDS011;60696;51.426;6.934;2022-07-17T10:28:14;6.60;;;1.80;;
35026;SDS011;60696;51.426;6.934;2022-07-17T10:30:32;5.95;;;1.75;;
35026;SDS011;60696;51.426;6.934;2022-07-17T10:32:59;7.47;;;1.73;;
35026;SDS011;60696;51.426;6.934;2022-07-17T10:35:26;6.60;;;1.65;;
35026;SDS011;60696;51.426;6.934;2022-07-17T10:37:57;10.05;;;1.50;;
35026;SDS011;60696;51.426;6.934;2022-07-17T10:40:34;6.67;;;1.70;;
35026;SDS011;60696;51.426;6.934;2022-07-17T10:43:00;7.28;;;1.90;;
35026;SDS011;60696;51.426;6.934;2022-07-17T10:45:37;8.43;;;2.17;;
35026;SDS011;60696;51.426;6.934;2022-07-17T10:48:18;6.47;;;1.70;;
35026;SDS011;60696;51.426;6.934;2022-07-17T10:50:46;6.47;;;2.03;;
35026;SDS011;60696;51.426;6.934;2022-07-17T10:53:15;7.93;;;1.80;;
35026;SDS011;60696;51.426;6.934;2022-07-17T10:58:31;5.70;;;1.83;;
35026;SDS011;60696;51.426;6.934;2022-07-17T11:01:08;9.32;;;2.35;;
35026;SDS011;60696;51.426;6.934;2022-07-17T11:08:49;10.75;;;2.65;;
35026;SDS011;60696;51.426;6.934;2022-07-17T11:11:15;8.85;;;2.50;;
35026;SDS011;60696;51.426;6.934;2022-07-17T11:13:42;14.07;;;3.03;;
35026;SDS011;60696;51.426;6.934;2022-07-17T11:16:08;8.15;;;2.70;;
35026;SDS011;60696;51.426;6.934;2022-07-17T11:18:35;8.75;;;2.83;;
35026;SDS011;60696;51.426;6.934;2022-07-17T11:21:04;8.57;;;3.25;;
35026;SDS011;60696;51.426;6.934;2022-07-17T11:23:30;13.98;;;3.28;;
35026;SDS011;60696;51.426;6.934;2022-07-17T11:26:04;14.10;;;2.65;;
35026;SDS011;60696;51.426;6.934;2022-07-17T11:28:38;10.38;;;2.95;;
35026;SDS011;60696;51.426;6.934;2022-07-17T11:31:21;9.85;;;2.63;;
35026;SDS011;60696;51.426;6.934;2022-07-17T11:33:53;9.30;;;2.85;;
35026;SDS011;60696;51.426;6.934;2022-07-17T11:36:42;6.78;;;2.55;;
35026;SDS011;60696;51.426;6.934;2022-07-17T11:39:13;8.00;;;2.60;;
35026;SDS011;60696;51.426;6.934;2022-07-17T11:41:47;7.95;;;2.00;;
35026;SDS011;60696;51.426;6.934;2022-07-17T11:44:16;12.73;;;2.65;;
35026;SDS011;60696;51.426;6.934;2022-07-17T11:46:44;8.05;;;2.13;;
35026;SDS011;60696;51.426;6.934;2022-07-17T11:49:23;6.80;;;2.10;;
35026;SDS011;60696;51.426;6.934;2022-07-17T11:51:55;9.23;;;2.47;;
35026;SDS011;60696;51.426;6.934;2022-07-17T11:54:22;6.30;;;2.00;;
35026;SDS011;60696;51.426;6.934;2022-07-17T11:56:55;13.13;;;2.13;;
35026;SDS011;60696;51.426;6.934;2022-07-17T11:59:24;9.90;;;2.80;;
35026;SDS011;60696;51.426;6.934;2022-07-17T12:01:51;13.13;;;2.58;;
35026;SDS011;60696;51.426;6.934;2022-07-17T12:04:17;8.98;;;2.25;;
35026;SDS011;60696;51.426;6.934;2022-07-17T12:06:43;10.45;;;2.83;;
35026;SDS011;60696;51.426;6.934;2022-07-17T12:09:09;10.57;;;2.90;;
35026;SDS011;60696;51.426;6.934;2022-07-17T12:11:46;11.80;;;2.58;;
35026;SDS011;60696;51.426;6.934;2022-07-17T12:14:15;7.68;;;2.25;;
35026;SDS011;60696;51.426;6.934;2022-07-17T12:16:41;7.88;;;2.03;;
35026;SDS011;60696;51.426;6.934;2022-07-17T12:21:58;6.72;;;2.10;;
35026;SDS011;60696;51.426;6.934;2022-07-17T12:24:31;6.80;;;2.10;;
35026;SDS011;60696;51.426;6.934;2022-07-17T12:27:04;7.60;;;2.03;;
35026;SDS011;60696;51.426;6.934;2022-07-17T12:29:35;7.03;;;2.00;;
35026;SDS011;60696;51.426;6.934;2022-07-17T12:34:34;7.07;;;1.77;;
35026;SDS011;60696;51.426;6.934;2022-07-17T12:37:00;7.88;;;2.05;;
35026;SDS011;60696;51.426;6.934;2022-07-17T12:39:26;10.80;;;1.95;;
35026;SDS011;60696;51.426;6.934;2022-07-17T12:41:52;5.88;;;1.60;;
35026;SDS011;60696;51.426;6.934;2022-07-17T12:44:17;6.40;;;1.92;;
35026;SDS011;60696;51.426;6.934;2022-07-17T12:46:43;3.60;;;1.38;;
35026;SDS011;60696;51.426;6.934;2022-07-17T12:49:09;5.15;;;1.60;;
35026;SDS011;60696;51.426;6.934;2022-07-17T12:51:34;5.40;;;1.50;;
35026;SDS011;60696;51.426;6.934;2022-07-17T12:54:00;4.10;;;1.30;;
35026;SDS011;60696;51.426;6.934;2022-07-17T12:56:26;6.38;;;1.63;;
35026;SDS011;60696;51.426;6.934;2022-07-17T12:58:52;10.95;;;1.70;;
35026;SDS011;60696;51.426;6.934;2022-07-17T13:01:18;4.07;;;1.60;;
35026;SDS011;60696;51.426;6.934;2022-07-17T13:03:44;6.32;;;1.23;;
35026;SDS011;60696;51.426;6.934;2022-07-17T13:06:10;6.32;;;1.50;;
35026;SDS011;60696;51.426;6.934;2022-07-17T13:08:36;4.53;;;1.45;;
35026;SDS011;60696;51.426;6.934;2022-07-17T13:11:02;6.20;;;1.48;;
35026;SDS011;60696;51.426;6.934;2022-07-17T13:13:29;7.50;;;1.67;;
35026;SDS011;60696;51.426;6.934;2022-07-17T13:15:55;3.55;;;1.10;;
35026;SDS011;60696;51.426;6.934;2022-07-17T13:18:21;4.72;;;1.25;;
35026;SDS011;60696;51.426;6.934;2022-07-17T13:20:47;7.93;;;1.20;;
35026;SDS011;60696;51.426;6.934;2022-07-17T13:23:13;4.30;;;1.20;;
35026;SDS011;60696;51.426;6.934;2022-07-17T13:25:39;6.00;;;1.25;;
35026;SDS011;60696;51.426;6.934;2022-07-17T13:28:05;5.25;;;1.10;;
35026;SDS011;60696;51.426;6.934;2022-07-17T13:30:32;7.97;;;1.00;;
35026;SDS011;60696;51.426;6.934;2022-07-17T13:32:58;4.40;;;1.20;;
35026;SDS011;60696;51.426;6.934;2022-07-17T13:35:24;6.07;;;1.20;;
35026;SDS011;60696;51.426;6.934;2022-07-17T13:37:50;5.22;;;1.38;;
35026;SDS011;60696;51.426;6.934;2022-07-17T13:40:16;3.83;;;1.20;;
35026;SDS011;60696;51.426;6.934;2022-07-17T13:42:44;3.95;;;1.40;;
35026;SDS011;60696;51.426;6.934;2022-07-17T13:45:10;4.63;;;1.30;;
35026;SDS011;60696;51.426;6.934;2022-07-17T13:47:36;4.18;;;1.60;;
35026;SDS011;60696;51.426;6.934;2022-07-17T13:50:04;3.63;;;1.15;;
35026;SDS011;60696;51.426;6.934;2022-07-17T13:52:30;3.00;;;1.00;;
35026;SDS011;60696;51.426;6.934;2022-07-17T13:54:56;6.50;;;1.45;;
35026;SDS011;60696;51.426;6.934;2022-07-17T13:57:22;6.13;;;1.40;;
35026;SDS011;60696;51.426;6.934;2022-07-17T13:59:48;4.65;;;1.17;;
35026;SDS011;60696;51.426;6.934;2022-07-17T14:02:14;5.15;;;0.90;;
35026;SDS011;60696;51.426;6.934;2022-07-17T14:04:39;3.72;;;1.23;;
35026;SDS011;60696;51.426;6.934;2022-07-17T14:07:06;3.75;;;1.10;;
35026;SDS011;60696;51.426;6.934;2022-07-17T14:09:32;4.32;;;1.15;;
35026;SDS011;60696;51.426;6.934;2022-07-17T14:11:58;4.43;;;1.40;;
35026;SDS011;60696;51.426;6.934;2022-07-17T14:14:24;6.07;;;1.17;;
35026;SDS011;60696;51.426;6.934;2022-07-17T14:16:49;5.20;;;1.00;;
35026;SDS011;60696;51.426;6.934;2022-07-17T14:19:15;3.90;;;1.10;;
35026;SDS011;60696;51.426;6.934;2022-07-17T14:21:41;3.38;;;1.20;;
35026;SDS011;60696;51.426;6.934;2022-07-17T14:24:07;7.63;;;1.42;;
35026;SDS011;60696;51.426;6.934;2022-07-17T14:26:33;3.33;;;1.27;;
35026;SDS011;60696;51.426;6.934;2022-07-17T14:29:00;6.20;;;1.30;;
35026;SDS011;60696;51.426;6.934;2022-07-17T14:31:26;3.03;;;1.00;;
35026;SDS011;60696;51.426;6.934;2022-07-17T14:33:52;1.95;;;0.80;;
35026;SDS011;60696;51.426;6.934;2022-07-17T14:36:18;4.90;;;1.23;;
35026;SDS011;60696;51.426;6.934;2022-07-17T14:38:43;5.20;;;1.30;;
35026;SDS011;60696;51.426;6.934;2022-07-17T14:41:10;6.10;;;1.33;;
35026;SDS011;60696;51.426;6.934;2022-07-17T14:43:36;6.88;;;1.00;;
35026;SDS011;60696;51.426;6.934;2022-07-17T14:46:01;5.20;;;1.30;;
35026;SDS011;60696;51.426;6.934;2022-07-17T14:48:27;3.30;;;1.10;;
35026;SDS011;60696;51.426;6.934;2022-07-17T14:50:53;3.65;;;1.10;;
35026;SDS011;60696;51.426;6.934;2022-07-17T14:53:18;5.43;;;1.48;;
35026;SDS011;60696;51.426;6.934;2022-07-17T14:55:47;6.82;;;1.35;;
35026;SDS011;60696;51.426;6.934;2022-07-17T14:58:13;4.85;;;1.10;;
35026;SDS011;60696;51.426;6.934;2022-07-17T15:00:39;3.80;;;1.23;;
35026;SDS011;60696;51.426;6.934;2022-07-17T15:03:04;3.10;;;1.00;;
35026;SDS011;60696;51.426;6.934;2022-07-17T15:05:30;3.55;;;1.17;;
35026;SDS011;60696;51.426;6.934;2022-07-17T15:07:56;4.72;;;1.30;;
35026;SDS011;60696;51.426;6.934;2022-07-17T15:10:22;6.00;;;1.55;;
35026;SDS011;60696;51.426;6.934;2022-07-17T15:12:48;6.25;;;1.30;;